• Join FlightAware (Why Join?)
  • Login
  • US Flag 
09:46AM EDT


 

Airport Tracker/Info


-or-


 

Live Flight TrackerFlight Track Log ✈ N920CS ✈ 13-Jul-2013 ✈ KPDK - KPDK

Flight Track Log - Related Links

Times and Time Zones

All times are in EDT time to prevent confusion due to time zone crossing. See the N920CS flight status page for this flight to view local times or setup timezone preferences in your user account.

Time Position Orientation Groundspeed Altitude Reporting Facility
EDT Latitude Longitude Course Direction KTS MPH feet Rate Location/Type
11:09AM 33.8500 -84.2833 59° Northeast 128 147 2,000  Level Atlanta TRACON
11:10AM 33.8667 -84.2500 59° Northeast 109 125 3,100 960 Climbing Atlanta TRACON
11:11AM 33.8667 -84.2000 90° East 117 135 4,000 840 Climbing Atlanta TRACON
11:12AM 33.8667 -84.1667 90° East 124 143 4,800 480 Climbing Atlanta TRACON
11:13AM 33.8667 -84.1167 90° East 145 167 5,000 60 Climbing Atlanta TRACON
11:14AM 33.8833 -84.0833 59° Northeast 152 175 5,000  Level Atlanta TRACON
11:15AM 33.8833 -84.0167 90° East 151 174 5,000  Level Atlanta TRACON
11:16AM 33.8833 -83.9833 90° East 154 177 5,000  Level Atlanta TRACON
11:17AM 33.9000 -83.9333 68° East 154 177 5,000  Level Atlanta TRACON
11:18AM 33.9000 -83.8667 90° East 154 177 5,000  Level Atlanta TRACON
11:19AM 33.9167 -83.8167 68° East 157 181 5,000  Level Atlanta TRACON
11:20AM 33.9167 -83.7667 90° East 154 177 5,000  Level Atlanta TRACON
11:21AM 33.9167 -83.7167 90° East 144 166 5,000  Level Atlanta TRACON
11:22AM 33.9333 -83.6833 59° Northeast 120 138 5,000  Level Atlanta TRACON
11:23AM 33.9333 -83.6500 90° East 122 140 5,000 -300 Level Atlanta TRACON
11:24AM 33.9333 -83.6000 90° East 123 142 4,500 -600 Descending Atlanta TRACON
11:25AM 33.9333 -83.5667 90° East 113 130 3,900 -600 Descending Atlanta TRACON
11:26AM 33.9167 -83.5500 140° Southeast 140 161 3,400 -540 Descending Atlanta TRACON
11:27AM 33.9167 -83.6000 270° West 148 170 2,900 -540 Descending Atlanta TRACON
11:28AM 33.9167 -83.6500 270° West 155 178 2,400 -240 Descending Atlanta TRACON
11:29AM 33.9333 -83.6500 360° North 121 139 2,500  Climbing Atlanta TRACON
11:30AM 33.9333 -83.6000 90° East 104 120 2,400  Descending Atlanta TRACON
11:31AM 33.9500 -83.5667 59° Northeast 103 119 2,500  Climbing Atlanta TRACON
11:32AM 33.9500 -83.5333 90° East 110 127 2,400 -60 Descending Atlanta TRACON
11:33AM 33.9500 -83.5000 90° East 108 124 2,400 -60 Level Atlanta TRACON
11:34AM 33.9500 -83.4667 90° East 90 104 2,300 -60 Descending Atlanta TRACON
11:35AM 33.9500 -83.4333 90° East 87 100 2,300 -180 Level Atlanta TRACON
11:36AM 33.9500 -83.4167 90° East 94 108 2,000 -480 Descending Atlanta TRACON
11:37AM 33.9500 -83.3833 90° East 97 112 1,500 -120 Descending Atlanta TRACON
11:39AM 33.9500 -83.3167 90° East 103 119 1,800 480 Climbing Atlanta TRACON
11:40AM 34.0000 -83.3333 345° North 129 148 3,000 900 Climbing Atlanta TRACON
11:41AM 34.0333 -83.3500 337° Northwest 137 158 3,700 480 Climbing Atlanta TRACON
11:42AM 34.0500 -83.3833 301° West 167 192 4,000 120 Climbing Atlanta TRACON
11:43AM 34.0333 -83.4167 239° Southwest 141 162 4,000 -420 Level Atlanta TRACON
11:44AM 34.0000 -83.4500 220° Southwest 141 162 3,300 -780 Descending Atlanta TRACON
11:45AM 33.9667 -83.4667 203° Southwest 143 165 2,500 -480 Descending Atlanta TRACON
11:46AM 33.9667 -83.5167 270° West 134 154 2,400 -60 Descending Atlanta TRACON
11:47AM 33.9667 -83.5500 270° West 128 147 2,400 -240 Level Atlanta TRACON
11:48AM 33.9667 -83.6000 270° West 129 148 2,000 -540 Descending Atlanta TRACON
11:49AM 33.9833 -83.6333 301° West 117 135 1,400 -180 Descending Atlanta TRACON
11:49AM 33.9833 -83.6667 270° West 123 142 1,700 540 Climbing Atlanta TRACON
11:51AM 34.0000 -83.7000 301° West 134 154 2,500 840 Climbing Atlanta TRACON
11:52AM 34.0500 -83.7167 345° North 148 170 3,500 960 Climbing Atlanta TRACON
11:53AM 34.0833 -83.7167 360° North 145 167 4,500 720 Climbing Atlanta TRACON
11:54AM 34.1167 -83.7333 338° Northwest 164 189 5,000 240 Climbing Atlanta TRACON
11:55AM 34.1167 -83.8000 270° West 187 215 5,000  Level Atlanta TRACON
11:56AM 34.1167 -83.8667 270° West 183 211 5,000  Level Atlanta TRACON
11:57AM 34.1000 -83.9167 248° West 180 207 5,000  Level Atlanta TRACON
11:58AM 34.1000 -83.9833 270° West 182 209 5,000  Level Atlanta TRACON
11:59AM 34.0833 -84.0333 248° West 178 205 5,000 -240 Level Atlanta TRACON
11:59AM 34.0833 -84.0833 270° West 160 184 4,600 -540 Descending Atlanta TRACON
12:01PM 34.0833 -84.1333 270° West 149 171 4,000 -540 Descending Atlanta TRACON
12:02PM 34.0667 -84.2000 253° West 152 175 3,500 -540 Descending Atlanta TRACON
12:03PM 34.0500 -84.2333 239° Southwest 145 167 3,000 -360 Descending Atlanta TRACON
12:04PM 34.0167 -84.2500 203° Southwest 130 150 2,900  Descending Atlanta TRACON
12:05PM 33.9833 -84.2667 203° Southwest 107 123 3,000 -60 Climbing Atlanta TRACON
12:06PM 33.9667 -84.2667 180° South 99 114 2,800 -540 Descending Atlanta TRACON
12:07PM 33.9333 -84.2833 203° Southwest 128 147 2,000 -720 Descending Atlanta TRACON
12:08PM 33.9000 -84.2833 180° South 110 127 1,400 -600 Descending Atlanta TRACON
12:09PM 33.8667 -84.2977 270° West  Level FlightAware Approximate
12:16PM 33.8667 -84.3000 270° West  Level FlightAware Approximate
12:17PM 33.8756 -84.3020 270° West  Level Estimated
12:18PM 33.8756 -84.3020 270° West  Level Estimated